createdAt,value
2018-04-02T00:01:33.000Z,6.60
2018-04-02T00:04:02.385Z,6.70
2018-04-02T00:06:31.476Z,6.60
2018-04-02T00:09:00.536Z,6.60
2018-04-02T00:11:29.558Z,6.50
2018-04-02T00:13:58.688Z,6.40
2018-04-02T00:16:27.715Z,6.30
2018-04-02T00:18:57.526Z,6.50
2018-04-02T00:21:26.601Z,6.40
2018-04-02T00:23:56.427Z,6.40
2018-04-02T00:26:25.714Z,6.40
2018-04-02T00:28:55.536Z,6.50
2018-04-02T00:31:24.600Z,6.50
2018-04-02T00:33:53.664Z,6.40
2018-04-02T00:36:22.911Z,6.30
2018-04-02T00:38:52.234Z,6.20
2018-04-02T00:41:21.262Z,6.20
2018-04-02T00:43:50.340Z,6.10
2018-04-02T00:46:19.355Z,6.00
2018-04-02T00:48:48.406Z,6.00
2018-04-02T00:51:17.459Z,5.90
2018-04-02T00:53:46.472Z,5.70
2018-04-02T00:56:16.248Z,5.60
2018-04-02T00:58:45.327Z,5.60
2018-04-02T01:01:14.343Z,5.60
2018-04-02T01:03:43.355Z,5.60
2018-04-02T01:06:14.077Z,5.40
2018-04-02T01:08:43.094Z,5.40
2018-04-02T01:11:12.138Z,5.30
2018-04-02T01:13:41.468Z,5.30
2018-04-02T01:16:10.470Z,5.40
2018-04-02T01:18:40.274Z,5.40
2018-04-02T01:21:10.044Z,5.30
2018-04-02T01:23:39.082Z,5.30
2018-04-02T01:26:08.889Z,5.20
2018-04-02T01:28:37.953Z,5.30
2018-04-02T01:31:06.997Z,5.30
2018-04-02T01:33:36.007Z,5.30
2018-04-02T01:36:05.061Z,5.40
2018-04-02T01:38:34.827Z,5.30
2018-04-02T01:41:03.861Z,5.20
2018-04-02T01:43:33.622Z,5.10
2018-04-02T01:46:02.677Z,5.00
2018-04-02T01:48:31.681Z,5.00
2018-04-02T01:51:00.706Z,5.00
2018-04-02T01:53:29.787Z,5.10
2018-04-02T01:55:58.841Z,4.90
2018-04-02T01:58:28.614Z,5.00
2018-04-02T02:00:57.663Z,5.00
2018-04-02T02:03:26.689Z,5.20
2018-04-02T02:05:55.744Z,5.30
2018-04-02T02:08:24.754Z,5.30
2018-04-02T02:10:53.807Z,5.40
2018-04-02T02:13:23.579Z,5.50
2018-04-02T02:15:52.631Z,5.40
2018-04-02T02:18:21.631Z,5.50
2018-04-02T02:20:50.751Z,5.60
2018-04-02T02:23:19.765Z,5.70
2018-04-02T02:25:48.822Z,5.70
2018-04-02T02:28:17.822Z,5.80
2018-04-02T02:30:46.818Z,5.80
2018-04-02T02:33:15.875Z,5.70
2018-04-02T02:35:45.639Z,5.70
2018-04-02T02:38:14.678Z,5.60
2018-04-02T02:40:43.688Z,5.60
2018-04-02T02:43:12.716Z,5.50
2018-04-02T02:45:41.735Z,5.30
2018-04-02T02:48:11.524Z,4.70
2018-04-02T02:50:40.529Z,4.70
2018-04-02T02:53:09.587Z,4.80
2018-04-02T02:55:38.585Z,4.80
2018-04-02T02:58:07.636Z,4.60
2018-04-02T03:00:36.641Z,4.40
2018-04-02T03:03:05.699Z,4.20
2018-04-02T03:05:34.698Z,4.00
2018-04-02T03:08:04.502Z,4.10
2018-04-02T03:10:33.506Z,4.00
2018-04-02T03:13:03.341Z,4.30
2018-04-02T03:15:32.338Z,4.20
2018-04-02T03:18:01.334Z,4.30
2018-04-02T03:20:30.372Z,4.30
2018-04-02T03:22:59.362Z,4.30
2018-04-02T03:25:28.398Z,4.30
2018-04-02T03:27:57.413Z,4.10
2018-04-02T03:30:26.506Z,4.10
2018-04-02T03:32:55.522Z,4.10
2018-04-02T03:35:24.561Z,4.10
2018-04-02T03:37:53.566Z,4.10
2018-04-02T03:40:22.604Z,4.00
2018-04-02T03:42:51.598Z,3.90
2018-04-02T03:45:20.642Z,3.80
2018-04-02T03:47:49.678Z,3.70
2018-04-02T03:50:18.714Z,3.50
2018-04-02T03:52:48.483Z,3.60
2018-04-02T03:55:17.906Z,3.50
2018-04-02T03:57:46.905Z,3.70
2018-04-02T04:00:16.730Z,3.80
2018-04-02T04:02:45.732Z,3.70
2018-04-02T04:05:14.731Z,3.70
2018-04-02T04:07:43.762Z,3.70
2018-04-02T04:10:12.769Z,3.50
2018-04-02T04:12:41.827Z,3.30
2018-04-02T04:15:10.830Z,3.30
2018-04-02T04:17:39.831Z,3.20
2018-04-02T04:20:08.856Z,3.30
2018-04-02T04:22:38.634Z,3.20
2018-04-02T04:25:07.635Z,3.20
2018-04-02T04:27:36.691Z,3.10
2018-04-02T04:30:05.699Z,2.90
2018-04-02T04:32:34.703Z,2.90
2018-04-02T04:35:03.753Z,3.00
2018-04-02T04:37:32.802Z,3.00
2018-04-02T04:40:01.802Z,3.10
2018-04-02T04:42:31.635Z,3.00
2018-04-02T04:45:01.395Z,3.00
2018-04-02T04:47:30.406Z,2.90
2018-04-02T04:49:59.445Z,2.90
2018-04-02T04:52:28.454Z,2.90
2018-04-02T04:54:57.454Z,2.90
2018-04-02T04:57:26.507Z,2.90
2018-04-02T04:59:55.550Z,2.90
2018-04-02T05:02:24.549Z,3.00
2018-04-02T05:04:53.604Z,2.90
2018-04-02T05:07:22.606Z,2.90
2018-04-02T05:09:51.650Z,2.80
2018-04-02T05:12:21.455Z,2.80
2018-04-02T05:14:50.512Z,2.80
2018-04-02T05:17:19.745Z,2.80
2018-04-02T05:19:48.794Z,2.80
2018-04-02T05:22:17.789Z,2.90
2018-04-02T05:24:46.841Z,2.80
2018-04-02T05:27:16.606Z,2.90
2018-04-02T05:29:45.659Z,2.80
2018-04-02T05:32:14.686Z,2.90
2018-04-02T05:34:43.713Z,2.90
2018-04-02T05:37:13.483Z,3.00
2018-04-02T05:39:42.528Z,2.90
2018-04-02T05:42:11.529Z,3.00
2018-04-02T05:44:40.570Z,3.10
2018-04-02T05:47:09.618Z,3.20
2018-04-02T05:49:38.651Z,3.20
2018-04-02T05:52:07.699Z,3.20
2018-04-02T05:54:37.460Z,3.30
2018-04-02T05:57:06.515Z,3.20
2018-04-02T05:59:35.573Z,3.40
2018-04-02T06:02:04.586Z,3.40
2018-04-02T06:04:34.409Z,3.60
2018-04-02T06:07:03.426Z,3.50
2018-04-02T06:09:33.509Z,3.60
2018-04-02T06:12:02.521Z,3.70
2018-04-02T06:14:31.526Z,3.80
2018-04-02T06:17:00.567Z,4.00
2018-04-02T06:19:29.577Z,4.10
2018-04-02T06:21:59.389Z,4.30
2018-04-02T06:24:28.399Z,4.20
2018-04-02T06:26:57.435Z,4.50
2018-04-02T06:29:26.462Z,4.60
2018-04-02T06:31:56.260Z,4.70
2018-04-02T06:34:25.279Z,4.70
2018-04-02T06:36:54.390Z,4.90
2018-04-02T06:39:23.335Z,5.00
2018-04-02T06:41:52.390Z,5.20
2018-04-02T06:44:21.409Z,5.40
2018-04-02T06:46:50.422Z,5.50
2018-04-02T06:49:19.454Z,5.60
2018-04-02T06:51:48.452Z,5.80
2018-04-02T06:54:17.514Z,5.80
2018-04-02T06:56:47.348Z,6.10
2018-04-02T06:59:16.346Z,6.00
2018-04-02T07:01:45.402Z,6.10
2018-04-02T07:04:15.188Z,6.30
2018-04-02T07:06:44.328Z,6.20
2018-04-02T07:09:13.324Z,6.40
2018-04-02T07:11:42.333Z,6.40
2018-04-02T07:14:11.391Z,6.60
2018-04-02T07:16:40.416Z,6.70
2018-04-02T07:19:09.533Z,6.90
2018-04-02T07:21:38.591Z,7.00
2018-04-02T07:24:07.653Z,7.20
2018-04-02T07:26:36.672Z,7.40
2018-04-02T07:29:06.590Z,7.60
2018-04-02T07:31:35.591Z,7.60
2018-04-02T07:34:04.636Z,7.90
2018-04-02T07:36:33.666Z,7.90
2018-04-02T07:39:02.722Z,8.10
2018-04-02T07:41:31.731Z,8.30
2018-04-02T07:44:00.798Z,8.60
2018-04-02T07:46:30.682Z,8.90
2018-04-02T07:49:01.205Z,9.20
2018-04-02T07:51:30.228Z,9.50
2018-04-02T07:53:59.257Z,9.70
2018-04-02T07:56:28.320Z,9.80
2018-04-02T07:58:57.398Z,10.10
2018-04-02T08:01:27.254Z,10.50
2018-04-02T08:03:56.390Z,10.40
2018-04-02T08:06:25.405Z,10.90
2018-04-02T08:08:54.459Z,11.30
2018-04-02T08:11:23.487Z,11.40
2018-04-02T08:13:52.539Z,11.60
2018-04-02T08:16:21.557Z,12.10
2018-04-02T08:18:50.574Z,12.60
2018-04-02T08:21:19.696Z,12.70
2018-04-02T08:23:48.674Z,13.20
2018-04-02T08:26:17.697Z,13.80
2018-04-02T08:28:47.534Z,14.50
2018-04-02T08:31:16.539Z,14.50
2018-04-02T08:33:45.565Z,14.90
2018-04-02T08:36:14.627Z,15.20
2018-04-02T08:38:43.673Z,15.70
2018-04-02T08:41:12.760Z,16.00
2018-04-02T08:43:41.772Z,16.20
2018-04-02T08:46:11.545Z,16.80
2018-04-02T08:48:40.602Z,16.70
2018-04-02T08:51:09.614Z,16.70
2018-04-02T08:53:38.645Z,15.70
2018-04-02T08:56:07.714Z,15.40
2018-04-02T08:58:36.738Z,15.30
2018-04-02T09:01:05.814Z,15.50
2018-04-02T09:03:34.833Z,15.40
2018-04-02T09:06:03.876Z,15.40
2018-04-02T09:08:32.908Z,15.60
2018-04-02T09:11:01.926Z,16.00
2018-04-02T09:13:31.019Z,16.50
2018-04-02T09:16:00.032Z,17.00
2018-04-02T09:18:29.050Z,16.80
2018-04-02T09:20:58.090Z,16.80
2018-04-02T09:23:27.112Z,17.20
2018-04-02T09:25:56.129Z,17.20
2018-04-02T09:28:25.182Z,17.50
2018-04-02T09:30:54.200Z,17.90
2018-04-02T09:33:23.257Z,18.30
2018-04-02T09:35:52.277Z,18.40
2018-04-02T09:38:21.333Z,18.60
2018-04-02T09:40:50.350Z,19.30
2018-04-02T09:43:20.149Z,19.70
2018-04-02T09:45:49.169Z,19.60
2018-04-02T09:48:18.990Z,18.50
2018-04-02T09:50:47.993Z,18.40
2018-04-02T09:53:17.000Z,18.00
2018-04-02T09:55:49.005Z,17.80
2018-04-02T09:58:21.273Z,17.90
2018-04-02T10:00:50.356Z,18.10
2018-04-02T10:03:19.390Z,18.30
2018-04-02T10:05:49.250Z,19.10
2018-04-02T10:08:18.350Z,19.00
2018-04-02T10:10:47.446Z,19.30
2018-04-02T10:13:16.466Z,19.40
2018-04-02T10:15:45.563Z,19.50
2018-04-02T10:18:15.493Z,19.60
2018-04-02T10:20:46.589Z,20.00
2018-04-02T10:23:15.658Z,20.30
2018-04-02T10:25:44.710Z,20.00
2018-04-02T10:28:15.623Z,20.20
2018-04-02T10:30:44.691Z,20.10
2018-04-02T10:33:13.673Z,20.20
2018-04-02T10:35:42.989Z,20.20
2018-04-02T10:38:12.423Z,20.70
2018-04-02T10:40:43.373Z,21.50
2018-04-02T10:43:13.725Z,22.50
2018-04-02T10:45:42.971Z,23.10
2018-04-02T10:48:11.987Z,23.10
2018-04-02T10:50:41.004Z,22.60
2018-04-02T10:53:12.344Z,23.20
2018-04-02T10:55:42.552Z,23.10
2018-04-02T10:58:11.862Z,23.40
2018-04-02T11:00:41.336Z,22.90
2018-04-02T11:03:10.488Z,22.70
2018-04-02T11:05:39.587Z,23.10
2018-04-02T11:08:08.653Z,24.10
2018-04-02T11:10:37.679Z,24.80
2018-04-02T11:13:06.694Z,24.70
2018-04-02T11:15:35.780Z,24.60
2018-04-02T11:18:04.819Z,24.40
2018-04-02T11:20:34.638Z,23.40
2018-04-02T11:23:03.737Z,23.30
2018-04-02T11:25:32.866Z,23.10
2018-04-02T11:28:01.896Z,22.40
2018-04-02T11:30:30.965Z,22.30
2018-04-02T11:33:00.023Z,22.70
2018-04-02T11:35:29.823Z,23.80
2018-04-02T11:37:58.938Z,23.80
2018-04-02T11:40:28.726Z,23.30
2018-04-02T11:42:57.881Z,23.20
2018-04-02T11:45:26.884Z,24.00
2018-04-02T11:47:55.970Z,24.60
2018-04-02T11:50:25.005Z,24.80
2018-04-02T11:52:54.025Z,24.60
2018-04-02T11:55:23.090Z,24.00
2018-04-02T11:57:52.177Z,24.10
2018-04-02T12:00:21.252Z,24.10
2018-04-02T12:02:50.286Z,23.90
2018-04-02T12:05:19.367Z,23.60
2018-04-02T12:07:48.826Z,23.20
2018-04-02T12:10:18.770Z,22.90
2018-04-02T12:12:47.835Z,22.80
2018-04-02T12:15:17.052Z,23.30
2018-04-02T12:17:46.359Z,23.50
2018-04-02T12:20:15.576Z,23.40
2018-04-02T12:22:45.391Z,22.70
2018-04-02T12:25:14.646Z,22.60
2018-04-02T12:27:44.011Z,22.80
2018-04-02T12:30:13.078Z,22.90
2018-04-02T12:32:42.178Z,23.00
2018-04-02T12:35:11.252Z,23.40
2018-04-02T12:37:40.273Z,23.70
2018-04-02T12:40:09.334Z,24.20
2018-04-02T12:42:38.350Z,24.20
2018-04-02T12:45:07.430Z,24.90
2018-04-02T12:47:36.498Z,25.10
2018-04-02T12:50:05.538Z,24.60
2018-04-02T12:52:34.604Z,24.80
2018-04-02T12:55:03.719Z,24.90
2018-04-02T12:57:32.730Z,24.60
2018-04-02T13:00:01.782Z,24.40
2018-04-02T13:02:33.780Z,24.50
2018-04-02T13:05:03.057Z,24.30
2018-04-02T13:07:32.142Z,25.10
2018-04-02T13:10:01.191Z,25.80
2018-04-02T13:12:30.234Z,26.30
2018-04-02T13:17:34.521Z,26.60
2018-04-02T13:20:03.582Z,26.60
2018-04-02T13:22:32.652Z,26.70
2018-04-02T13:25:50.403Z,27.00
2018-04-02T13:28:24.462Z,27.50
2018-04-02T13:30:54.288Z,28.50
2018-04-02T13:33:23.332Z,28.30
2018-04-02T13:35:52.344Z,29.10
2018-04-02T13:38:21.400Z,30.60
2018-04-02T13:40:50.414Z,30.30
2018-04-02T13:43:19.473Z,29.10
2018-04-02T13:45:48.627Z,28.20
2018-04-02T13:48:17.651Z,26.60
2018-04-02T13:50:47.495Z,26.90
2018-04-02T13:53:16.509Z,26.80
2018-04-02T13:55:45.512Z,28.00
2018-04-02T13:58:14.556Z,27.60
2018-04-02T14:00:43.594Z,27.10
2018-04-02T14:03:12.641Z,26.80
2018-04-02T14:05:41.683Z,26.70
2018-04-02T14:08:10.776Z,27.20
2018-04-02T14:10:39.792Z,27.40
2018-04-02T14:13:08.854Z,28.10
2018-04-02T14:15:37.909Z,28.10
2018-04-02T14:18:06.958Z,27.90
2018-04-02T14:20:35.988Z,28.10
2018-04-02T14:23:05.040Z,28.60
2018-04-02T14:25:34.052Z,29.20
2018-04-02T14:28:03.121Z,28.60
2018-04-02T14:30:32.137Z,28.10
2018-04-02T14:33:01.205Z,29.00
2018-04-02T14:35:30.265Z,28.40
2018-04-02T14:37:59.289Z,27.40
2018-04-02T14:40:28.919Z,26.90
2018-04-02T14:42:57.962Z,26.70
2018-04-02T14:45:27.013Z,27.00
2018-04-02T14:47:56.111Z,27.20
2018-04-02T14:50:25.130Z,26.90
2018-04-02T14:52:54.195Z,26.40
2018-04-02T14:55:23.219Z,25.70
2018-04-02T14:57:52.291Z,24.40
2018-04-02T15:00:21.335Z,23.20
2018-04-02T15:02:50.429Z,22.20
2018-04-02T15:05:19.447Z,21.40
2018-04-02T15:07:48.471Z,21.40
2018-04-02T15:10:17.558Z,21.50
2018-04-02T15:12:46.566Z,21.80
2018-04-02T15:15:15.600Z,21.80
2018-04-02T15:17:44.636Z,21.30
2018-04-02T15:20:13.715Z,21.10
2018-04-02T15:22:42.991Z,20.80
2018-04-02T15:25:12.134Z,20.90
2018-04-02T15:27:41.470Z,21.00
2018-04-02T15:30:11.885Z,21.10
2018-04-02T15:32:43.009Z,21.00
2018-04-02T15:35:12.940Z,21.20
2018-04-02T15:37:42.047Z,21.10
2018-04-02T15:40:12.583Z,21.40
2018-04-02T15:42:42.083Z,21.40
2018-04-02T15:45:11.116Z,21.50
2018-04-02T15:47:40.129Z,21.30
2018-04-02T15:50:09.379Z,21.40
2018-04-02T15:52:38.647Z,21.50
2018-04-02T15:55:09.415Z,20.90
2018-04-02T15:57:39.009Z,20.80
2018-04-02T16:00:08.089Z,20.30
2018-04-02T16:02:37.162Z,20.00
2018-04-02T16:05:06.474Z,19.50
2018-04-02T16:07:38.119Z,19.30
2018-04-02T16:10:08.434Z,19.10
2018-04-02T16:12:37.639Z,18.80
2018-04-02T16:15:06.656Z,18.60
2018-04-02T16:17:36.750Z,18.80
2018-04-02T16:20:05.812Z,18.70
2018-04-02T16:22:34.862Z,19.10
2018-04-02T16:25:05.114Z,19.40
2018-04-02T16:27:34.176Z,19.60
2018-04-02T16:30:03.963Z,19.80
2018-04-02T16:32:33.018Z,19.70
2018-04-02T16:35:02.029Z,19.80
2018-04-02T16:37:31.095Z,19.50
2018-04-02T16:40:00.120Z,19.00
2018-04-02T16:42:29.357Z,18.80
2018-04-02T16:44:59.132Z,18.40
2018-04-02T16:47:28.166Z,18.30
2018-04-02T16:49:58.273Z,17.90
2018-04-02T16:52:27.309Z,17.90
2018-04-02T16:54:56.473Z,17.70
2018-04-02T16:57:25.545Z,17.40
2018-04-02T16:59:54.638Z,17.30
2018-04-02T17:02:23.676Z,17.20
2018-04-02T17:04:52.735Z,17.20
2018-04-02T17:07:21.764Z,17.20
2018-04-02T17:09:50.830Z,17.20
2018-04-02T17:12:19.846Z,17.30
2018-04-02T17:14:48.862Z,17.20
2018-04-02T17:17:17.962Z,17.20
2018-04-02T17:19:47.004Z,17.10
2018-04-02T17:22:16.036Z,16.90
2018-04-02T17:24:45.206Z,16.80
2018-04-02T17:27:14.225Z,16.80
2018-04-02T17:29:43.266Z,16.60
2018-04-02T17:32:12.544Z,16.50
2018-04-02T17:34:41.563Z,16.40
2018-04-02T17:37:10.652Z,16.30
2018-04-02T17:39:39.697Z,16.10
2018-04-02T17:42:08.784Z,16.00
2018-04-02T17:44:37.821Z,15.70
2018-04-02T17:47:06.903Z,15.60
2018-04-02T17:49:36.298Z,15.40
2018-04-02T17:52:05.415Z,15.40
2018-04-02T17:54:34.435Z,15.30
2018-04-02T17:57:03.681Z,15.20
2018-04-02T17:59:32.702Z,15.10
2018-04-02T18:02:01.820Z,15.00
2018-04-02T18:04:30.951Z,14.90
2018-04-02T18:07:01.667Z,14.80
2018-04-02T18:09:31.668Z,14.70
2018-04-02T18:12:01.470Z,14.70
2018-04-02T18:14:30.590Z,14.70
2018-04-02T18:16:59.777Z,14.70
2018-04-02T18:19:29.553Z,14.50
2018-04-02T18:21:58.676Z,14.40
2018-04-02T18:24:27.702Z,14.40
2018-04-02T18:26:56.758Z,14.10
2018-04-02T18:29:26.590Z,13.90
2018-04-02T18:31:55.650Z,13.90
2018-04-02T18:34:24.723Z,13.50
2018-04-02T18:36:53.773Z,13.30
2018-04-02T18:39:22.822Z,13.30
2018-04-02T18:41:51.942Z,13.30
2018-04-02T18:44:21.739Z,13.40
2018-04-02T18:46:50.745Z,13.30
2018-04-02T18:49:20.841Z,13.30
2018-04-02T18:51:50.846Z,13.30
2018-04-02T18:54:20.052Z,13.20
2018-04-02T18:56:49.183Z,13.30
2018-04-02T18:59:18.982Z,12.80
2018-04-02T19:01:51.955Z,12.70
2018-04-02T19:04:21.114Z,12.40
2018-04-02T19:06:50.150Z,12.20
2018-04-02T19:09:19.579Z,12.30
2018-04-02T19:11:49.501Z,12.50
2018-04-02T19:14:18.590Z,12.40
2018-04-02T19:16:47.655Z,12.30
2018-04-02T19:19:16.682Z,12.40
2018-04-02T19:21:45.926Z,12.20
2018-04-02T19:24:14.998Z,11.90
2018-04-02T19:26:44.062Z,11.90
2018-04-02T19:29:13.214Z,12.10
2018-04-02T19:31:42.533Z,12.40
2018-04-02T19:34:11.958Z,12.30
2018-04-02T19:36:40.998Z,12.50
2018-04-02T19:39:11.904Z,12.60
2018-04-02T19:41:41.422Z,12.70
2018-04-02T19:44:10.483Z,12.70
2018-04-02T19:46:39.641Z,12.40
2018-04-02T19:49:08.697Z,12.30
2018-04-02T19:51:38.625Z,12.50
2018-04-02T19:54:07.722Z,12.50
2018-04-02T19:56:36.777Z,12.60
2018-04-02T19:59:06.563Z,12.60
2018-04-02T20:01:35.622Z,12.60
2018-04-02T20:04:04.644Z,12.50
2018-04-02T20:06:33.696Z,12.50
2018-04-02T20:09:02.710Z,12.50
2018-04-02T20:11:31.871Z,12.70
2018-04-02T20:14:01.250Z,12.70
2018-04-02T20:16:30.422Z,12.80
2018-04-02T20:18:59.467Z,12.80
2018-04-02T20:21:28.509Z,12.80
2018-04-02T20:23:57.559Z,12.80
2018-04-02T20:26:26.643Z,12.80
2018-04-02T20:28:55.668Z,12.80
2018-04-02T20:31:24.878Z,12.70
2018-04-02T20:33:53.894Z,12.70
2018-04-02T20:36:22.918Z,12.80
2018-04-02T20:38:51.979Z,12.80
2018-04-02T20:41:21.010Z,12.80
2018-04-02T20:43:50.110Z,12.80
2018-04-02T20:46:19.145Z,12.60
2018-04-02T20:48:48.157Z,12.40
2018-04-02T20:51:17.977Z,12.20
2018-04-02T20:53:47.024Z,12.10
2018-04-02T20:56:16.050Z,12.30
2018-04-02T20:58:45.162Z,12.40
2018-04-02T21:01:14.145Z,12.20
2018-04-02T21:03:43.206Z,12.00
2018-04-02T21:06:12.218Z,11.80
2018-04-02T21:08:41.291Z,11.60
2018-04-02T21:11:10.312Z,11.60
2018-04-02T21:13:39.326Z,11.70
2018-04-02T21:16:08.364Z,11.50
2018-04-02T21:18:37.390Z,11.40
2018-04-02T21:21:06.445Z,11.40
2018-04-02T21:23:36.402Z,11.30
2018-04-02T21:26:05.421Z,11.30
2018-04-02T21:28:34.488Z,11.50
2018-04-02T21:31:03.497Z,11.50
2018-04-02T21:33:33.438Z,11.10
2018-04-02T21:36:02.486Z,11.10
2018-04-02T21:38:31.548Z,11.10
2018-04-02T21:41:00.558Z,11.20
2018-04-02T21:43:29.665Z,11.30
2018-04-02T21:45:59.597Z,11.20
2018-04-02T21:48:28.600Z,11.00
2018-04-02T21:50:57.673Z,10.70
2018-04-02T21:53:26.694Z,10.70
2018-04-02T21:55:55.730Z,10.60
2018-04-02T21:58:24.789Z,10.50
2018-04-02T22:00:53.845Z,10.40
2018-04-02T22:03:22.862Z,10.50
2018-04-02T22:05:51.902Z,10.60
2018-04-02T22:08:20.921Z,10.40
2018-04-02T22:10:50.023Z,10.20
2018-04-02T22:13:19.047Z,10.20
2018-04-02T22:15:48.061Z,10.10
2018-04-02T22:18:17.134Z,9.90
2018-04-02T22:20:46.170Z,9.80
2018-04-02T22:23:15.171Z,9.70
2018-04-02T22:25:44.226Z,9.90
2018-04-02T22:28:16.878Z,10.00
2018-04-02T22:30:45.940Z,9.90
2018-04-02T22:33:15.007Z,10.10
2018-04-02T22:35:44.047Z,10.20
2018-04-02T22:38:13.880Z,10.10
2018-04-02T22:40:42.903Z,10.00
2018-04-02T22:43:11.959Z,10.00
2018-04-02T22:45:40.982Z,10.20
2018-04-02T22:48:10.054Z,10.20
2018-04-02T22:50:39.628Z,10.30
2018-04-02T22:53:08.706Z,10.20
2018-04-02T22:55:37.760Z,10.20
2018-04-02T22:58:07.025Z,10.30
2018-04-02T23:00:36.113Z,10.00
2018-04-02T23:03:05.229Z,10.00
2018-04-02T23:05:34.286Z,10.00
2018-04-02T23:08:03.344Z,9.90
2018-04-02T23:10:32.357Z,9.80
2018-04-02T23:13:01.447Z,9.60
2018-04-02T23:15:30.471Z,9.40
2018-04-02T23:17:59.536Z,9.20
2018-04-02T23:20:28.542Z,9.10
2018-04-02T23:22:57.610Z,9.10
2018-04-02T23:25:26.671Z,9.20
2018-04-02T23:27:55.798Z,9.30
2018-04-02T23:30:25.074Z,9.40
2018-04-02T23:32:54.234Z,9.20
2018-04-02T23:35:23.400Z,9.30
2018-04-02T23:37:53.434Z,9.40
2018-04-02T23:40:22.448Z,9.40
2018-04-02T23:42:51.505Z,9.40
2018-04-02T23:45:20.574Z,9.20
2018-04-02T23:47:49.799Z,9.10
2018-04-02T23:50:19.046Z,9.20
2018-04-02T23:52:48.237Z,9.20
2018-04-02T23:55:17.242Z,9.40
2018-04-02T23:57:46.571Z,9.60
